Springhill, Canada
Current Conditions -  °F | °C
As of 7:00 AM on Thursday 23 Oct 2014 (Local Time) from CYQM Reporting Station
Overcast Overcast  
Wind Chill: 42°   Ceiling: 600
Heat Index: 48°   Visibility: 10mi
Dew Point: 46°   Wind: 16mph
Humidity: 93%   Direction: 50°NE
Pressure: 30.17"   Gusts: 24mph
Location:  45.65°N, 64.06°W
Report Text: CYQM 231000Z 05014G21KT 10SM BKN006 OVC017 09/08 A3017 RMK SF5SF3 SLP218
Loading
Personal Weather Stations






























Interactive Weather Map
Tropical Storm Tracking
New forecast layout! Learn more

10-Day Weather Forecast

Advertisements
Track Severe Weather on mobile